sensor_id;sensor_type;location;lat;lon;timestamp;pressure;altitude;pressure_sealevel;temperature;humidity
42621;BME280;28252;53.336;-6.298;2023-02-22T00:00:11;100375.44;;;21.96;98.07
42621;BME280;28252;53.336;-6.298;2023-02-22T00:00:49;100375.44;;;21.96;97.70
42621;BME280;28252;53.336;-6.298;2023-02-22T00:01:23;100372.91;;;21.94;97.98
42621;BME280;28252;53.336;-6.298;2023-02-22T00:02:17;100373.78;;;21.95;97.75
42621;BME280;28252;53.336;-6.298;2023-02-22T00:02:59;100371.06;;;21.95;97.72
42621;BME280;28252;53.336;-6.298;2023-02-22T00:03:38;100368.53;;;21.93;98.11
42621;BME280;28252;53.336;-6.298;2023-02-22T00:04:09;100373.09;;;21.93;97.95
42621;BME280;28252;53.336;-6.298;2023-02-22T00:04:43;100370.38;;;21.93;98.00
42621;BME280;28252;53.336;-6.298;2023-02-22T00:05:14;100364.13;;;21.92;97.46
42621;BME280;28252;53.336;-6.298;2023-02-22T00:05:51;100368.72;;;21.92;97.31
42621;BME280;28252;53.336;-6.298;2023-02-22T00:06:25;100376.84;;;21.92;97.54
42621;BME280;28252;53.336;-6.298;2023-02-22T00:06:58;100380.41;;;21.92;97.84
42621;BME280;28252;53.336;-6.298;2023-02-22T00:07:33;100375.81;;;21.93;97.45
42621;BME280;28252;53.336;-6.298;2023-02-22T00:08:06;100376.84;;;21.92;97.68
42621;BME280;28252;53.336;-6.298;2023-02-22T00:08:41;100373.28;;;21.91;97.63
42621;BME280;28252;53.336;-6.298;2023-02-22T00:09:16;100375.16;;;21.91;97.84
42621;BME280;28252;53.336;-6.298;2023-02-22T00:09:50;100377.88;;;21.91;97.59
42621;BME280;28252;53.336;-6.298;2023-02-22T00:10:26;100374.31;;;21.90;97.54
42621;BME280;28252;53.336;-6.298;2023-02-22T00:11:03;100375.16;;;21.91;97.68
42621;BME280;28252;53.336;-6.298;2023-02-22T00:11:37;100374.31;;;21.90;98.16
42621;BME280;28252;53.336;-6.298;2023-02-22T00:12:13;100377.88;;;21.91;97.94
42621;BME280;28252;53.336;-6.298;2023-02-22T00:12:46;100376.22;;;21.90;98.14
42621;BME280;28252;53.336;-6.298;2023-02-22T00:13:23;100375.16;;;21.91;97.69
42621;BME280;28252;53.336;-6.298;2023-02-22T00:14:01;100361.59;;;21.91;97.80
42621;BME280;28252;53.336;-6.298;2023-02-22T00:14:34;100377.03;;;21.90;97.91
42621;BME280;28252;53.336;-6.298;2023-02-22T00:15:05;100376.22;;;21.90;97.85
42621;BME280;28252;53.336;-6.298;2023-02-22T00:15:39;100379.75;;;21.90;98.29
42621;BME280;28252;53.336;-6.298;2023-02-22T00:16:17;100384.53;;;21.88;97.93
42621;BME280;28252;53.336;-6.298;2023-02-22T00:16:53;100385.34;;;21.89;97.63
42621;BME280;28252;53.336;-6.298;2023-02-22T00:17:31;100397.03;;;21.89;97.79
42621;BME280;28252;53.336;-6.298;2023-02-22T00:18:04;100390.78;;;21.89;97.54
42621;BME280;28252;53.336;-6.298;2023-02-22T00:18:38;100397.22;;;21.88;97.50
42621;BME280;28252;53.336;-6.298;2023-02-22T00:19:11;100391.81;;;21.88;97.82
42621;BME280;28252;53.336;-6.298;2023-02-22T00:19:47;100398.28;;;21.87;98.02
42621;BME280;28252;53.336;-6.298;2023-02-22T00:20:21;100403.69;;;21.87;97.61
42621;BME280;28252;53.336;-6.298;2023-02-22T00:20:55;100404.53;;;21.87;96.58
42621;BME280;28252;53.336;-6.298;2023-02-22T00:21:34;100409.13;;;21.87;96.58
42621;BME280;28252;53.336;-6.298;2023-02-22T00:22:07;100407.41;;;21.86;97.84
42621;BME280;28252;53.336;-6.298;2023-02-22T00:22:42;100411.19;;;21.85;96.90
42621;BME280;28252;53.336;-6.298;2023-02-22T00:23:20;100409.31;;;21.85;97.71
42621;BME280;28252;53.336;-6.298;2023-02-22T00:23:53;100410.13;;;21.86;97.41
42621;BME280;28252;53.336;-6.298;2023-02-22T00:24:26;100407.41;;;21.86;97.67
42621;BME280;28252;53.336;-6.298;2023-02-22T00:25:01;100412.84;;;21.86;96.20
42621;BME280;28252;53.336;-6.298;2023-02-22T00:25:37;100421.16;;;21.84;96.57
42621;BME280;28252;53.336;-6.298;2023-02-22T00:26:17;100423.88;;;21.84;97.09
42621;BME280;28252;53.336;-6.298;2023-02-22T00:26:56;100415.75;;;21.84;95.96
42621;BME280;28252;53.336;-6.298;2023-02-22T00:27:29;100418.63;;;21.82;96.96
42621;BME280;28252;53.336;-6.298;2023-02-22T00:28:00;100424.91;;;21.83;97.26
42621;BME280;28252;53.336;-6.298;2023-02-22T00:28:36;100419.69;;;21.81;96.30
42621;BME280;28252;53.336;-6.298;2023-02-22T00:29:07;100422.41;;;21.81;97.02
42621;BME280;28252;53.336;-6.298;2023-02-22T00:29:44;100429.88;;;21.79;97.41
42621;BME280;28252;53.336;-6.298;2023-02-22T00:30:22;100429.88;;;21.79;97.80
42621;BME280;28252;53.336;-6.298;2023-02-22T00:30:56;100430.06;;;21.78;97.96
42621;BME280;28252;53.336;-6.298;2023-02-22T00:31:29;100419.41;;;21.76;96.43
42621;BME280;28252;53.336;-6.298;2023-02-22T00:32:05;100435.50;;;21.78;97.05
42621;BME280;28252;53.336;-6.298;2023-02-22T00:32:39;100433.59;;;21.78;96.63
42621;BME280;28252;53.336;-6.298;2023-02-22T00:33:13;100434.63;;;21.77;96.78
42621;BME280;28252;53.336;-6.298;2023-02-22T00:33:48;100433.59;;;21.78;96.40
42621;BME280;28252;53.336;-6.298;2023-02-22T00:34:25;100436.31;;;21.78;96.89
42621;BME280;28252;53.336;-6.298;2023-02-22T00:34:58;100429.19;;;21.77;96.93
42621;BME280;28252;53.336;-6.298;2023-02-22T00:35:34;100442.75;;;21.77;97.05
42621;BME280;28252;53.336;-6.298;2023-02-22T00:36:06;100441.09;;;21.76;96.70
42621;BME280;28252;53.336;-6.298;2023-02-22T00:36:48;100441.09;;;21.76;96.60
42621;BME280;28252;53.336;-6.298;2023-02-22T00:37:19;100447.34;;;21.77;96.71
42621;BME280;28252;53.336;-6.298;2023-02-22T00:37:52;100440.03;;;21.77;95.79
42621;BME280;28252;53.336;-6.298;2023-02-22T00:38:26;100447.34;;;21.77;96.27
42621;BME280;28252;53.336;-6.298;2023-02-22T00:38:57;100445.66;;;21.76;95.68
42621;BME280;28252;53.336;-6.298;2023-02-22T00:39:30;100457.34;;;21.76;96.03
42621;BME280;28252;53.336;-6.298;2023-02-22T00:40:01;100452.94;;;21.75;96.24
42621;BME280;28252;53.336;-6.298;2023-02-22T00:40:38;100444.81;;;21.75;96.37
42621;BME280;28252;53.336;-6.298;2023-02-22T00:41:10;100451.06;;;21.76;96.63
42621;BME280;28252;53.336;-6.298;2023-02-22T00:41:44;100450.44;;;21.74;96.54
42621;BME280;28252;53.336;-6.298;2023-02-22T00:42:15;100446.88;;;21.73;96.47
42621;BME280;28252;53.336;-6.298;2023-02-22T00:42:49;100457.72;;;21.73;96.34
42621;BME280;28252;53.336;-6.298;2023-02-22T00:43:22;100462.31;;;21.73;96.13
42621;BME280;28252;53.336;-6.298;2023-02-22T00:43:59;100454.38;;;21.71;96.32
42621;BME280;28252;53.336;-6.298;2023-02-22T00:44:32;100455.19;;;21.72;96.23
42621;BME280;28252;53.336;-6.298;2023-02-22T00:45:05;100458.75;;;21.72;96.69
42621;BME280;28252;53.336;-6.298;2023-02-22T00:45:44;100460.81;;;21.70;96.36
42621;BME280;28252;53.336;-6.298;2023-02-22T00:46:17;100462.69;;;21.70;96.16
42621;BME280;28252;53.336;-6.298;2023-02-22T00:46:55;100461.84;;;21.69;96.60
42621;BME280;28252;53.336;-6.298;2023-02-22T00:47:31;100462.84;;;21.68;96.51
42621;BME280;28252;53.336;-6.298;2023-02-22T00:48:05;100462.84;;;21.68;96.55
42621;BME280;28252;53.336;-6.298;2023-02-22T00:48:38;100469.28;;;21.67;96.35
42621;BME280;28252;53.336;-6.298;2023-02-22T00:49:11;100462.22;;;21.66;96.49
42621;BME280;28252;53.336;-6.298;2023-02-22T00:49:42;100463.88;;;21.67;96.30
42621;BME280;28252;53.336;-6.298;2023-02-22T00:50:19;100461.34;;;21.66;96.14
42621;BME280;28252;53.336;-6.298;2023-02-22T00:50:54;100465.94;;;21.65;96.54
42621;BME280;28252;53.336;-6.298;2023-02-22T00:51:29;100463.22;;;21.65;96.51
42621;BME280;28252;53.336;-6.298;2023-02-22T00:52:00;100458.00;;;21.63;96.44
42621;BME280;28252;53.336;-6.298;2023-02-22T00:52:32;100465.94;;;21.65;96.45
42621;BME280;28252;53.336;-6.298;2023-02-22T00:53:05;100462.56;;;21.63;96.75
42621;BME280;28252;53.336;-6.298;2023-02-22T00:53:40;100471.72;;;21.62;96.54
42621;BME280;28252;53.336;-6.298;2023-02-22T00:54:15;100472.59;;;21.62;96.48
42621;BME280;28252;53.336;-6.298;2023-02-22T00:54:50;100470.88;;;21.61;96.36
42621;BME280;28252;53.336;-6.298;2023-02-22T00:55:25;100471.72;;;21.62;96.47
42621;BME280;28252;53.336;-6.298;2023-02-22T00:55:59;100474.63;;;21.60;96.28
42621;BME280;28252;53.336;-6.298;2023-02-22T00:56:33;100469.19;;;21.60;96.38
42621;BME280;28252;53.336;-6.298;2023-02-22T00:57:06;100472.09;;;21.59;96.26
42621;BME280;28252;53.336;-6.298;2023-02-22T00:57:37;100466.66;;;21.59;96.30
42621;BME280;28252;53.336;-6.298;2023-02-22T00:58:10;100472.94;;;21.59;96.60
42621;BME280;28252;53.336;-6.298;2023-02-22T00:58:47;100479.56;;;21.57;96.19
42621;BME280;28252;53.336;-6.298;2023-02-22T00:59:25;100474.16;;;21.57;96.56
42621;BME280;28252;53.336;-6.298;2023-02-22T01:00:04;100481.25;;;21.58;96.35
42621;BME280;28252;53.336;-6.298;2023-02-22T01:00:47;100484.16;;;21.56;96.22
42621;BME280;28252;53.336;-6.298;2023-02-22T01:01:21;100481.63;;;21.55;96.51
42621;BME280;28252;53.336;-6.298;2023-02-22T01:01:58;100482.47;;;21.55;96.42
42621;BME280;28252;53.336;-6.298;2023-02-22T01:02:29;100487.03;;;21.55;96.66
42621;BME280;28252;53.336;-6.298;2023-02-22T01:03:14;100482.63;;;21.54;96.26
42621;BME280;28252;53.336;-6.298;2023-02-22T01:03:48;100483.69;;;21.53;96.39
42621;BME280;28252;53.336;-6.298;2023-02-22T01:05:32;100481.16;;;21.51;96.01
42621;BME280;28252;53.336;-6.298;2023-02-22T01:06:08;100477.63;;;21.51;96.13
42621;BME280;28252;53.336;-6.298;2023-02-22T01:06:40;100474.91;;;21.51;96.21
42621;BME280;28252;53.336;-6.298;2023-02-22T01:07:11;100479.47;;;21.50;96.16
42621;BME280;28252;53.336;-6.298;2023-02-22T01:07:44;100473.22;;;21.50;96.38
42621;BME280;28252;53.336;-6.298;2023-02-22T01:08:19;100478.81;;;21.48;96.58
42621;BME280;28252;53.336;-6.298;2023-02-22T01:09:01;100483.41;;;21.48;96.16
42621;BME280;28252;53.336;-6.298;2023-02-22T01:09:33;100481.53;;;21.48;96.09
42621;BME280;28252;53.336;-6.298;2023-02-22T01:10:11;100484.41;;;21.47;96.54
42621;BME280;28252;53.336;-6.298;2023-02-22T01:10:47;100490.69;;;21.47;96.26
42621;BME280;28252;53.336;-6.298;2023-02-22T01:11:22;100484.41;;;21.47;96.50
42621;BME280;28252;53.336;-6.298;2023-02-22T01:11:54;100493.56;;;21.45;96.38
42621;BME280;28252;53.336;-6.298;2023-02-22T01:12:29;100495.25;;;21.47;96.45
42621;BME280;28252;53.336;-6.298;2023-02-22T01:13:05;100486.44;;;21.44;96.13
42621;BME280;28252;53.336;-6.298;2023-02-22T01:13:42;100498.09;;;21.45;96.04
42621;BME280;28252;53.336;-6.298;2023-02-22T01:14:15;100489.16;;;21.44;96.31
42621;BME280;28252;53.336;-6.298;2023-02-22T01:14:53;100490.16;;;21.43;96.20
42621;BME280;28252;53.336;-6.298;2023-02-22T01:15:30;100492.88;;;21.43;96.24
42621;BME280;28252;53.336;-6.298;2023-02-22T01:16:04;100488.50;;;21.42;96.32
42621;BME280;28252;53.336;-6.298;2023-02-22T01:16:40;100489.50;;;21.41;96.20
42621;BME280;28252;53.336;-6.298;2023-02-22T01:17:13;100501.22;;;21.42;96.02
42621;BME280;28252;53.336;-6.298;2023-02-22T01:17:47;100497.63;;;21.41;96.03
42621;BME280;28252;53.336;-6.298;2023-02-22T01:18:20;100501.38;;;21.40;96.02
42621;BME280;28252;53.336;-6.298;2023-02-22T01:18:56;100497.81;;;21.40;96.24
42621;BME280;28252;53.336;-6.298;2023-02-22T01:19:29;100500.53;;;21.40;96.48
42621;BME280;28252;53.336;-6.298;2023-02-22T01:20:06;100494.28;;;21.39;96.34
42621;BME280;28252;53.336;-6.298;2023-02-22T01:20:42;100508.81;;;21.38;96.13
42621;BME280;28252;53.336;-6.298;2023-02-22T01:21:21;100506.13;;;21.38;96.44
42621;BME280;28252;53.336;-6.298;2023-02-22T01:21:52;100507.00;;;21.39;96.59
42621;BME280;28252;53.336;-6.298;2023-02-22T01:22:31;100505.47;;;21.36;96.52
42621;BME280;28252;53.336;-6.298;2023-02-22T01:23:04;100505.47;;;21.36;96.03
42621;BME280;28252;53.336;-6.298;2023-02-22T01:23:39;100505.47;;;21.36;96.21
42621;BME280;28252;53.336;-6.298;2023-02-22T01:24:11;100506.34;;;21.37;96.50
42621;BME280;28252;53.336;-6.298;2023-02-22T01:24:49;100505.47;;;21.36;96.36
42621;BME280;28252;53.336;-6.298;2023-02-22T01:25:21;100506.50;;;21.35;96.38
42621;BME280;28252;53.336;-6.298;2023-02-22T01:25:56;100504.81;;;21.34;96.07
42621;BME280;28252;53.336;-6.298;2023-02-22T01:26:36;100506.69;;;21.34;96.47
42621;BME280;28252;53.336;-6.298;2023-02-22T01:27:08;100506.69;;;21.34;96.53
42621;BME280;28252;53.336;-6.298;2023-02-22T01:27:41;100505.00;;;21.33;96.41
42621;BME280;28252;53.336;-6.298;2023-02-22T01:28:12;100515.84;;;21.33;96.13
42621;BME280;28252;53.336;-6.298;2023-02-22T01:28:44;100511.44;;;21.32;95.93
42621;BME280;28252;53.336;-6.298;2023-02-22T01:29:17;100507.06;;;21.31;96.74
42621;BME280;28252;53.336;-6.298;2023-02-22T01:29:49;100505.16;;;21.31;96.15
42621;BME280;28252;53.336;-6.298;2023-02-22T01:30:25;100506.22;;;21.30;96.32
42621;BME280;28252;53.336;-6.298;2023-02-22T01:30:59;100512.47;;;21.31;96.56
42621;BME280;28252;53.336;-6.298;2023-02-22T01:31:36;100513.31;;;21.31;96.44
42621;BME280;28252;53.336;-6.298;2023-02-22T01:32:13;100511.63;;;21.30;96.23
42621;BME280;28252;53.336;-6.298;2023-02-22T01:32:46;100510.78;;;21.30;96.10
42621;BME280;28252;53.336;-6.298;2023-02-22T01:33:24;100510.78;;;21.30;96.13
42621;BME280;28252;53.336;-6.298;2023-02-22T01:34:02;100515.34;;;21.29;96.00
42621;BME280;28252;53.336;-6.298;2023-02-22T01:34:33;100511.81;;;21.29;96.20
42621;BME280;28252;53.336;-6.298;2023-02-22T01:35:08;100506.56;;;21.27;96.31
42621;BME280;28252;53.336;-6.298;2023-02-22T01:35:45;100501.16;;;21.27;96.32
42621;BME280;28252;53.336;-6.298;2023-02-22T01:36:41;100512.81;;;21.27;95.86
42621;BME280;28252;53.336;-6.298;2023-02-22T01:37:15;100521.13;;;21.26;96.40
42621;BME280;28252;53.336;-6.298;2023-02-22T01:37:48;100514.03;;;21.25;96.13
42621;BME280;28252;53.336;-6.298;2023-02-22T01:38:24;100513.19;;;21.24;96.39
42621;BME280;28252;53.336;-6.298;2023-02-22T01:38:58;100519.47;;;21.25;95.96
42621;BME280;28252;53.336;-6.298;2023-02-22T01:39:32;100515.06;;;21.24;96.05
42621;BME280;28252;53.336;-6.298;2023-02-22T01:40:14;100517.75;;;21.24;96.54
42621;BME280;28252;53.336;-6.298;2023-02-22T01:40:49;100516.06;;;21.23;96.54
42621;BME280;28252;53.336;-6.298;2023-02-22T01:41:22;100524.19;;;21.23;96.44
42621;BME280;28252;53.336;-6.298;2023-02-22T01:41:54;100527.94;;;21.22;96.46
42621;BME280;28252;53.336;-6.298;2023-02-22T01:42:27;100525.25;;;21.22;96.13
42621;BME280;28252;53.336;-6.298;2023-02-22T01:43:02;100528.97;;;21.21;96.08
42621;BME280;28252;53.336;-6.298;2023-02-22T01:43:40;100524.38;;;21.21;96.70
42621;BME280;28252;53.336;-6.298;2023-02-22T01:44:27;100522.72;;;21.20;96.30
42621;BME280;28252;53.336;-6.298;2023-02-22T01:45:52;100525.59;;;21.19;96.05
42621;BME280;28252;53.336;-6.298;2023-02-22T01:46:26;100520.19;;;21.19;96.01
42621;BME280;28252;53.336;-6.298;2023-02-22T01:47:04;100525.59;;;21.19;96.02
42621;BME280;28252;53.336;-6.298;2023-02-22T01:47:35;100520.19;;;21.19;96.21
42621;BME280;28252;53.336;-6.298;2023-02-22T01:48:45;100531.00;;;21.19;96.18
42621;BME280;28252;53.336;-6.298;2023-02-22T01:49:19;100518.47;;;21.18;96.16
42621;BME280;28252;53.336;-6.298;2023-02-22T01:49:52;100525.78;;;21.17;96.10
42621;BME280;28252;53.336;-6.298;2023-02-22T01:50:24;100515.13;;;21.16;96.20
42621;BME280;28252;53.336;-6.298;2023-02-22T01:50:59;100520.53;;;21.16;96.24
42621;BME280;28252;53.336;-6.298;2023-02-22T01:51:35;100521.56;;;21.15;96.29
42621;BME280;28252;53.336;-6.298;2023-02-22T01:52:08;100525.13;;;21.15;95.99
42621;BME280;28252;53.336;-6.298;2023-02-22T01:52:40;100527.00;;;21.15;96.35
42621;BME280;28252;53.336;-6.298;2023-02-22T01:53:17;100521.75;;;21.13;96.38
42621;BME280;28252;53.336;-6.298;2023-02-22T01:53:52;100531.72;;;21.13;95.99
42621;BME280;28252;53.336;-6.298;2023-02-22T01:54:30;100528.19;;;21.12;96.03
42621;BME280;28252;53.336;-6.298;2023-02-22T01:55:03;100530.06;;;21.12;96.33
42621;BME280;28252;53.336;-6.298;2023-02-22T01:55:38;100518.19;;;21.13;96.34
42621;BME280;28252;53.336;-6.298;2023-02-22T01:56:17;100524.63;;;21.12;95.88
42621;BME280;28252;53.336;-6.298;2023-02-22T01:57:38;100531.06;;;21.11;96.23
42621;BME280;28252;53.336;-6.298;2023-02-22T01:58:11;100529.41;;;21.10;96.45
42621;BME280;28252;53.336;-6.298;2023-02-22T01:58:51;100523.97;;;21.10;96.08
42621;BME280;28252;53.336;-6.298;2023-02-22T01:59:22;100530.41;;;21.08;96.41
42621;BME280;28252;53.336;-6.298;2023-02-22T01:59:57;100523.13;;;21.09;96.48
42621;BME280;28252;53.336;-6.298;2023-02-22T02:00:30;100530.41;;;21.08;96.75
42621;BME280;28252;53.336;-6.298;2023-02-22T02:01:02;100525.00;;;21.08;96.72
42621;BME280;28252;53.336;-6.298;2023-02-22T02:01:35;100530.41;;;21.08;96.12
42621;BME280;28252;53.336;-6.298;2023-02-22T02:02:09;100529.56;;;21.08;96.28
42621;BME280;28252;53.336;-6.298;2023-02-22T02:02:43;100529.56;;;21.08;96.53
42621;BME280;28252;53.336;-6.298;2023-02-22T02:03:18;100530.59;;;21.07;96.61
42621;BME280;28252;53.336;-6.298;2023-02-22T02:03:51;100523.28;;;21.07;96.44
42621;BME280;28252;53.336;-6.298;2023-02-22T02:04:26;100537.00;;;21.06;96.19
42621;BME280;28252;53.336;-6.298;2023-02-22T02:04:59;100528.72;;;21.07;96.60
42621;BME280;28252;53.336;-6.298;2023-02-22T02:05:42;100526.19;;;21.06;96.57
42621;BME280;28252;53.336;-6.298;2023-02-22T02:06:14;100528.06;;;21.05;96.30
42621;BME280;28252;53.336;-6.298;2023-02-22T02:06:46;100535.34;;;21.05;96.56
42621;BME280;28252;53.336;-6.298;2023-02-22T02:07:22;100533.66;;;21.04;96.75
42621;BME280;28252;53.336;-6.298;2023-02-22T02:08:00;100530.09;;;21.03;96.50
42621;BME280;28252;53.336;-6.298;2023-02-22T02:09:32;100532.81;;;21.03;96.83
42621;BME280;28252;53.336;-6.298;2023-02-22T02:10:10;100537.41;;;21.03;96.87
42621;BME280;28252;53.336;-6.298;2023-02-22T02:10:45;100531.13;;;21.02;97.07
42621;BME280;28252;53.336;-6.298;2023-02-22T02:11:23;100524.88;;;21.02;96.49
42621;BME280;28252;53.336;-6.298;2023-02-22T02:12:01;100533.16;;;21.00;96.45
42621;BME280;28252;53.336;-6.298;2023-02-22T02:12:37;100534.00;;;21.01;96.45
42621;BME280;28252;53.336;-6.298;2023-02-22T02:13:13;100533.16;;;21.00;97.07
42621;BME280;28252;53.336;-6.298;2023-02-22T02:13:52;100532.16;;;21.01;96.94
42621;BME280;28252;53.336;-6.298;2023-02-22T02:14:26;100536.72;;;21.01;96.94
42621;BME280;28252;53.336;-6.298;2023-02-22T02:15:19;100537.75;;;21.00;96.66
42621;BME280;28252;53.336;-6.298;2023-02-22T02:15:52;100531.47;;;20.99;96.68
42621;BME280;28252;53.336;-6.298;2023-02-22T02:16:34;100536.88;;;20.99;96.32
42621;BME280;28252;53.336;-6.298;2023-02-22T02:17:14;100539.81;;;20.98;96.89
42621;BME280;28252;53.336;-6.298;2023-02-22T02:17:50;100540.63;;;20.98;96.76
42621;BME280;28252;53.336;-6.298;2023-02-22T02:18:25;100541.66;;;20.97;97.06
42621;BME280;28252;53.336;-6.298;2023-02-22T02:19:01;100544.34;;;20.97;96.75
42621;BME280;28252;53.336;-6.298;2023-02-22T02:20:26;100541.81;;;20.96;96.97
42621;BME280;28252;53.336;-6.298;2023-02-22T02:26:21;100535.94;;;20.92;97.38
42621;BME280;28252;53.336;-6.298;2023-02-22T02:27:09;100535.94;;;20.92;97.48
42621;BME280;28252;53.336;-6.298;2023-02-22T02:32:53;100540.03;;;20.88;97.56
42621;BME280;28252;53.336;-6.298;2023-02-22T02:33:30;100545.44;;;20.88;97.49
42621;BME280;28252;53.336;-6.298;2023-02-22T02:35:59;100543.75;;;20.87;97.36
42621;BME280;28252;53.336;-6.298;2023-02-22T02:36:16;100545.63;;;20.86;97.44
42621;BME280;28252;53.336;-6.298;2023-02-22T02:36:55;100547.50;;;20.86;97.92
42621;BME280;28252;53.336;-6.298;2023-02-22T02:38:54;100551.19;;;20.85;97.84
42621;BME280;28252;53.336;-6.298;2023-02-22T02:39:36;100555.78;;;20.84;97.39
42621;BME280;28252;53.336;-6.298;2023-02-22T02:40:22;100553.25;;;20.83;97.83
42621;BME280;28252;53.336;-6.298;2023-02-22T02:40:58;100547.00;;;20.82;97.67
42621;BME280;28252;53.336;-6.298;2023-02-22T02:41:41;100548.84;;;20.82;97.73
42621;BME280;28252;53.336;-6.298;2023-02-22T02:42:19;100547.00;;;20.82;97.89
42621;BME280;28252;53.336;-6.298;2023-02-22T02:43:43;100547.00;;;20.82;97.55
42621;BME280;28252;53.336;-6.298;2023-02-22T02:45:07;100549.88;;;20.81;98.14
42621;BME280;28252;53.336;-6.298;2023-02-22T02:45:47;100548.19;;;20.80;97.90
42621;BME280;28252;53.336;-6.298;2023-02-22T02:47:00;100549.19;;;20.79;97.97
42621;BME280;28252;53.336;-6.298;2023-02-22T02:47:43;100549.19;;;20.79;98.17
42621;BME280;28252;53.336;-6.298;2023-02-22T02:48:16;100550.25;;;20.78;97.96
42621;BME280;28252;53.336;-6.298;2023-02-22T02:48:53;100562.72;;;20.79;97.92
42621;BME280;28252;53.336;-6.298;2023-02-22T02:49:32;100555.66;;;20.78;98.04
42621;BME280;28252;53.336;-6.298;2023-02-22T02:50:09;100553.94;;;20.77;98.06
42621;BME280;28252;53.336;-6.298;2023-02-22T02:50:44;100555.66;;;20.78;98.00
42621;BME280;28252;53.336;-6.298;2023-02-22T02:51:19;100554.81;;;20.77;97.69
42621;BME280;28252;53.336;-6.298;2023-02-22T02:51:52;100548.53;;;20.77;98.03
42621;BME280;28252;53.336;-6.298;2023-02-22T02:52:28;100553.94;;;20.77;97.37
42621;BME280;28252;53.336;-6.298;2023-02-22T02:53:07;100558.53;;;20.76;98.03
42621;BME280;28252;53.336;-6.298;2023-02-22T02:53:44;100552.28;;;20.76;97.98
42621;BME280;28252;53.336;-6.298;2023-02-22T02:54:22;100561.41;;;20.75;97.84
42621;BME280;28252;53.336;-6.298;2023-02-22T02:54:59;100558.69;;;20.75;97.67
42621;BME280;28252;53.336;-6.298;2023-02-22T02:55:36;100557.88;;;20.74;98.08
42621;BME280;28252;53.336;-6.298;2023-02-22T02:56:14;100557.00;;;20.74;98.18
42621;BME280;28252;53.336;-6.298;2023-02-22T02:56:52;100558.03;;;20.73;97.97
42621;BME280;28252;53.336;-6.298;2023-02-22T02:57:26;100563.47;;;20.73;97.91
42621;BME280;28252;53.336;-6.298;2023-02-22T02:57:59;100558.88;;;20.73;97.76
42621;BME280;28252;53.336;-6.298;2023-02-22T02:58:51;100552.63;;;20.73;98.14
42621;BME280;28252;53.336;-6.298;2023-02-22T02:59:31;100556.34;;;20.71;97.70
42621;BME280;28252;53.336;-6.298;2023-02-22T03:00:12;100550.94;;;20.71;97.97
42621;BME280;28252;53.336;-6.298;2023-02-22T03:00:57;100556.34;;;20.71;97.71
42621;BME280;28252;53.336;-6.298;2023-02-22T03:01:44;100558.22;;;20.71;97.88
42621;BME280;28252;53.336;-6.298;2023-02-22T03:07:49;100560.44;;;20.67;97.74
42621;BME280;28252;53.336;-6.298;2023-02-22T03:08:33;100566.84;;;20.66;97.95
42621;BME280;28252;53.336;-6.298;2023-02-22T03:11:14;100556.22;;;20.65;97.84
42621;BME280;28252;53.336;-6.298;2023-02-22T03:12:33;100566.19;;;20.64;97.91
42621;BME280;28252;53.336;-6.298;2023-02-22T03:13:14;100559.22;;;20.62;98.61
42621;BME280;28252;53.336;-6.298;2023-02-22T03:14:47;100560.44;;;20.59;98.60
42621;BME280;28252;53.336;-6.298;2023-02-22T03:15:39;100559.44;;;20.60;98.40
42621;BME280;28252;53.336;-6.298;2023-02-22T03:18:28;100562.97;;;20.61;98.27
42621;BME280;28252;53.336;-6.298;2023-02-22T03:19:55;100568.56;;;20.59;98.05
42621;BME280;28252;53.336;-6.298;2023-02-22T03:20:33;100563.97;;;20.60;98.60
42621;BME280;28252;53.336;-6.298;2023-02-22T03:21:54;100559.59;;;20.59;98.50
42621;BME280;28252;53.336;-6.298;2023-02-22T03:22:32;100566.84;;;20.58;98.23
42621;BME280;28252;53.336;-6.298;2023-02-22T03:23:10;100562.31;;;20.59;98.38
42621;BME280;28252;53.336;-6.298;2023-02-22T03:23:54;100559.78;;;20.57;98.00
42621;BME280;28252;53.336;-6.298;2023-02-22T03:24:35;100557.06;;;20.57;98.00
42621;BME280;28252;53.336;-6.298;2023-02-22T03:25:07;100571.44;;;20.58;98.05
42621;BME280;28252;53.336;-6.298;2023-02-22T03:25:46;100563.50;;;20.56;98.33
42621;BME280;28252;53.336;-6.298;2023-02-22T03:26:28;100559.78;;;20.57;98.12
42621;BME280;28252;53.336;-6.298;2023-02-22T03:27:42;100562.66;;;20.56;98.02
42621;BME280;28252;53.336;-6.298;2023-02-22T03:28:22;100567.25;;;20.55;98.51
42621;BME280;28252;53.336;-6.298;2023-02-22T03:28:56;100567.25;;;20.55;98.36
42621;BME280;28252;53.336;-6.298;2023-02-22T03:29:31;100564.69;;;20.53;98.66
42621;BME280;28252;53.336;-6.298;2023-02-22T03:30:10;100567.41;;;20.53;98.32
42621;BME280;28252;53.336;-6.298;2023-02-22T03:30:45;100565.53;;;20.54;98.47
42621;BME280;28252;53.336;-6.298;2023-02-22T03:31:24;100566.53;;;20.53;98.04
42621;BME280;28252;53.336;-6.298;2023-02-22T03:31:59;100556.75;;;20.52;98.26
42621;BME280;28252;53.336;-6.298;2023-02-22T03:32:35;100556.59;;;20.53;98.38
42621;BME280;28252;53.336;-6.298;2023-02-22T03:34:15;100565.72;;;20.52;98.62
42621;BME280;28252;53.336;-6.298;2023-02-22T03:34:58;100558.59;;;20.51;98.48
42621;BME280;28252;53.336;-6.298;2023-02-22T03:35:35;100564.22;;;20.50;98.75
42621;BME280;28252;53.336;-6.298;2023-02-22T03:36:17;100561.50;;;20.50;98.08
42621;BME280;28252;53.336;-6.298;2023-02-22T03:36:58;100561.69;;;20.48;98.24
42621;BME280;28252;53.336;-6.298;2023-02-22T03:37:33;100562.50;;;20.49;98.64
42621;BME280;28252;53.336;-6.298;2023-02-22T03:38:08;100569.63;;;20.50;98.97
42621;BME280;28252;53.336;-6.298;2023-02-22T03:38:43;100564.22;;;20.50;98.40
42621;BME280;28252;53.336;-6.298;2023-02-22T03:39:19;100569.63;;;20.50;98.84
42621;BME280;28252;53.336;-6.298;2023-02-22T03:39:53;100567.94;;;20.49;99.19
42621;BME280;28252;53.336;-6.298;2023-02-22T03:40:30;100560.81;;;20.48;98.75
42621;BME280;28252;53.336;-6.298;2023-02-22T03:41:03;100571.47;;;20.49;98.64